sensor_id;sensor_type;location;lat;lon;timestamp;pressure;altitude;pressure_sealevel;temperature;humidity
79645;BME280;69117;47.148;18.954;2024-03-23T00:56:34;100148.53;;;6.60;100.00
79645;BME280;69117;47.148;18.954;2024-03-23T00:59:34;100145.69;;;6.52;100.00
79645;BME280;69117;47.148;18.954;2024-03-23T01:02:35;100137.47;;;6.45;100.00
79645;BME280;69117;47.148;18.954;2024-03-23T01:05:36;100133.56;;;6.39;100.00
79645;BME280;69117;47.148;18.954;2024-03-23T01:08:36;100134.88;;;6.34;100.00
79645;BME280;69117;47.148;18.954;2024-03-23T01:11:37;100121.09;;;6.21;100.00
79645;BME280;69117;47.148;18.954;2024-03-23T01:14:38;100128.47;;;6.15;100.00
79645;BME280;69117;47.148;18.954;2024-03-23T01:17:39;100118.56;;;6.08;100.00
79645;BME280;69117;47.148;18.954;2024-03-23T01:20:39;100110.50;;;6.00;100.00
79645;BME280;69117;47.148;18.954;2024-03-23T01:23:40;100107.72;;;5.90;100.00
79645;BME280;69117;47.148;18.954;2024-03-23T01:26:41;100107.72;;;5.90;100.00
79645;BME280;69117;47.148;18.954;2024-03-23T01:29:41;100110.22;;;5.91;100.00
79645;BME280;69117;47.148;18.954;2024-03-23T01:32:42;100104.28;;;5.89;100.00
79645;BME280;69117;47.148;18.954;2024-03-23T01:35:43;100105.22;;;5.77;100.00
79645;BME280;69117;47.148;18.954;2024-03-23T01:38:44;100085.22;;;5.76;100.00
79645;BME280;69117;47.148;18.954;2024-03-23T01:41:45;100089.66;;;5.76;100.00
79645;BME280;69117;47.148;18.954;2024-03-23T01:44:45;100076.88;;;5.71;100.00
79645;BME280;69117;47.148;18.954;2024-03-23T01:47:46;100081.44;;;5.69;100.00
79645;BME280;69117;47.148;18.954;2024-03-23T01:50:47;100082.59;;;5.65;100.00
79645;BME280;69117;47.148;18.954;2024-03-23T01:53:49;100068.66;;;5.53;100.00
79645;BME280;69117;47.148;18.954;2024-03-23T01:56:49;100073.31;;;5.49;100.00
79645;BME280;69117;47.148;18.954;2024-03-23T01:59:50;100079.63;;;5.47;100.00
79645;BME280;69117;47.148;18.954;2024-03-23T02:02:51;100076.41;;;5.43;100.00
79645;BME280;69117;47.148;18.954;2024-03-23T02:05:53;100070.59;;;5.40;100.00
79645;BME280;69117;47.148;18.954;2024-03-23T02:08:55;100063.06;;;5.35;100.00
79645;BME280;69117;47.148;18.954;2024-03-23T02:11:56;100073.53;;;5.35;100.00
79645;BME280;69117;47.148;18.954;2024-03-23T02:14:56;100067.84;;;5.30;100.00
79645;BME280;69117;47.148;18.954;2024-03-23T02:17:57;100063.91;;;5.24;100.00
79645;BME280;69117;47.148;18.954;2024-03-23T02:20:58;100062.59;;;5.19;100.00
79645;BME280;69117;47.148;18.954;2024-03-23T02:23:59;100057.59;;;5.16;100.00
79645;BME280;69117;47.148;18.954;2024-03-23T02:27:00;100067.91;;;5.17;100.00
79645;BME280;69117;47.148;18.954;2024-03-23T02:30:01;100062.91;;;5.14;100.00
79645;BME280;69117;47.148;18.954;2024-03-23T02:33:01;100049.00;;;5.14;100.00
79645;BME280;69117;47.148;18.954;2024-03-23T02:36:02;100054.13;;;5.15;100.00
79645;BME280;69117;47.148;18.954;2024-03-23T02:39:03;100046.63;;;5.11;100.00
79645;BME280;69117;47.148;18.954;2024-03-23T02:42:04;100039.13;;;5.06;100.00
79645;BME280;69117;47.148;18.954;2024-03-23T02:45:04;100023.06;;;4.99;100.00
79645;BME280;69117;47.148;18.954;2024-03-23T02:48:05;100025.44;;;5.02;100.00
79645;BME280;69117;47.148;18.954;2024-03-23T02:51:06;100024.50;;;5.03;100.00
79645;BME280;69117;47.148;18.954;2024-03-23T02:54:07;100021.88;;;5.03;100.00
79645;BME280;69117;47.148;18.954;2024-03-23T02:57:08;100031.50;;;5.03;100.00
79645;BME280;69117;47.148;18.954;2024-03-23T03:00:09;100020.91;;;4.93;100.00
79645;BME280;69117;47.148;18.954;2024-03-23T03:03:11;100020.19;;;4.91;100.00
79645;BME280;69117;47.148;18.954;2024-03-23T03:06:22;100011.84;;;4.86;100.00
79645;BME280;69117;47.148;18.954;2024-03-23T03:09:23;100012.91;;;4.83;100.00
79645;BME280;69117;47.148;18.954;2024-03-23T03:12:24;100000.53;;;4.74;100.00
79645;BME280;69117;47.148;18.954;2024-03-23T03:15:25;100004.81;;;4.75;100.00
79645;BME280;69117;47.148;18.954;2024-03-23T03:18:26;100004.91;;;4.74;100.00
79645;BME280;69117;47.148;18.954;2024-03-23T03:21:26;100006.94;;;4.70;100.00
79645;BME280;69117;47.148;18.954;2024-03-23T03:24:27;100004.06;;;4.62;100.00
79645;BME280;69117;47.148;18.954;2024-03-23T03:27:28;100005.03;;;4.61;100.00
79645;BME280;69117;47.148;18.954;2024-03-23T03:30:29;100001.81;;;4.57;100.00
79645;BME280;69117;47.148;18.954;2024-03-23T03:33:30;99992.63;;;4.52;100.00
79645;BME280;69117;47.148;18.954;2024-03-23T03:36:30;99999.41;;;4.54;100.00
79645;BME280;69117;47.148;18.954;2024-03-23T03:39:31;99996.19;;;4.51;100.00
79645;BME280;69117;47.148;18.954;2024-03-23T03:42:32;99989.19;;;4.51;100.00
79645;BME280;69117;47.148;18.954;2024-03-23T03:45:32;100001.19;;;4.54;100.00
79645;BME280;69117;47.148;18.954;2024-03-23T03:48:33;100000.34;;;4.53;100.00
79645;BME280;69117;47.148;18.954;2024-03-23T03:51:34;99992.03;;;4.48;100.00
79645;BME280;69117;47.148;18.954;2024-03-23T03:54:35;99997.34;;;4.47;100.00
79645;BME280;69117;47.148;18.954;2024-03-23T03:57:35;99996.03;;;4.41;100.00
79645;BME280;69117;47.148;18.954;2024-03-23T04:00:36;99982.84;;;4.43;100.00
79645;BME280;69117;47.148;18.954;2024-03-23T04:03:37;99974.88;;;4.44;100.00
79645;BME280;69117;47.148;18.954;2024-03-23T04:06:40;99975.38;;;4.49;100.00
79645;BME280;69117;47.148;18.954;2024-03-23T04:09:40;99971.72;;;4.52;100.00
79645;BME280;69117;47.148;18.954;2024-03-23T04:12:42;99966.97;;;4.57;100.00
79645;BME280;69117;47.148;18.954;2024-03-23T04:15:43;99976.47;;;4.58;100.00
79645;BME280;69117;47.148;18.954;2024-03-23T04:18:44;99972.78;;;4.61;100.00
79645;BME280;69117;47.148;18.954;2024-03-23T04:21:45;99971.75;;;4.63;100.00
79645;BME280;69117;47.148;18.954;2024-03-23T04:24:46;99962.19;;;4.62;100.00
79645;BME280;69117;47.148;18.954;2024-03-23T04:27:47;99962.94;;;4.64;100.00
79645;BME280;69117;47.148;18.954;2024-03-23T04:30:48;99961.16;;;4.65;100.00
79645;BME280;69117;47.148;18.954;2024-03-23T04:33:49;99960.09;;;4.67;100.00
79645;BME280;69117;47.148;18.954;2024-03-23T04:36:50;99957.34;;;4.69;100.00
79645;BME280;69117;47.148;18.954;2024-03-23T04:39:50;99956.28;;;4.71;100.00
79645;BME280;69117;47.148;18.954;2024-03-23T04:42:51;99948.78;;;4.78;100.00
79645;BME280;69117;47.148;18.954;2024-03-23T04:45:52;99953.69;;;4.82;100.00
79645;BME280;69117;47.148;18.954;2024-03-23T04:48:53;99955.72;;;4.90;100.00
79645;BME280;69117;47.148;18.954;2024-03-23T04:51:53;99954.38;;;4.96;100.00
79645;BME280;69117;47.148;18.954;2024-03-23T04:54:54;99958.31;;;5.01;100.00
79645;BME280;69117;47.148;18.954;2024-03-23T04:57:55;99958.44;;;5.11;100.00
79645;BME280;69117;47.148;18.954;2024-03-23T05:00:56;99955.97;;;5.21;100.00
79645;BME280;69117;47.148;18.954;2024-03-23T05:03:58;99962.59;;;5.36;100.00
79645;BME280;69117;47.148;18.954;2024-03-23T05:06:58;99956.66;;;5.45;100.00
79645;BME280;69117;47.148;18.954;2024-03-23T05:09:59;99962.44;;;5.60;100.00
79645;BME280;69117;47.148;18.954;2024-03-23T05:13:00;99966.81;;;5.71;100.00
79645;BME280;69117;47.148;18.954;2024-03-23T05:16:01;99969.41;;;5.82;100.00
79645;BME280;69117;47.148;18.954;2024-03-23T05:19:02;99959.84;;;5.92;100.00
79645;BME280;69117;47.148;18.954;2024-03-23T05:22:03;99954.03;;;6.00;100.00
79645;BME280;69117;47.148;18.954;2024-03-23T05:25:04;99958.53;;;6.09;100.00
79645;BME280;69117;47.148;18.954;2024-03-23T05:28:05;99956.94;;;6.18;100.00
79645;BME280;69117;47.148;18.954;2024-03-23T05:31:06;99954.59;;;6.36;100.00
79645;BME280;69117;47.148;18.954;2024-03-23T05:34:06;99960.78;;;6.56;100.00
79645;BME280;69117;47.148;18.954;2024-03-23T05:37:07;99958.53;;;6.72;100.00
79645;BME280;69117;47.148;18.954;2024-03-23T05:40:09;99957.25;;;6.87;100.00
79645;BME280;69117;47.148;18.954;2024-03-23T05:43:10;99955.38;;;6.99;100.00
79645;BME280;69117;47.148;18.954;2024-03-23T05:46:11;99955.69;;;7.16;100.00
79645;BME280;69117;47.148;18.954;2024-03-23T05:49:11;99953.81;;;7.27;100.00
79645;BME280;69117;47.148;18.954;2024-03-23T05:52:13;99953.31;;;7.43;100.00
79645;BME280;69117;47.148;18.954;2024-03-23T05:55:13;99954.47;;;7.60;100.00
79645;BME280;69117;47.148;18.954;2024-03-23T05:58:15;99944.66;;;7.72;100.00
79645;BME280;69117;47.148;18.954;2024-03-23T06:01:16;99949.38;;;7.88;100.00
79645;BME280;69117;47.148;18.954;2024-03-23T06:04:17;99942.31;;;8.08;100.00
79645;BME280;69117;47.148;18.954;2024-03-23T06:07:17;99943.03;;;8.29;100.00
79645;BME280;69117;47.148;18.954;2024-03-23T06:10:18;99944.13;;;8.46;100.00
79645;BME280;69117;47.148;18.954;2024-03-23T06:13:20;99937.16;;;8.64;100.00
79645;BME280;69117;47.148;18.954;2024-03-23T06:16:23;99934.50;;;8.84;100.00
79645;BME280;69117;47.148;18.954;2024-03-23T06:19:25;99941.69;;;9.19;100.00
79645;BME280;69117;47.148;18.954;2024-03-23T06:22:28;99941.75;;;9.37;100.00
79645;BME280;69117;47.148;18.954;2024-03-23T06:25:29;99926.50;;;9.58;100.00
79645;BME280;69117;47.148;18.954;2024-03-23T06:28:29;99933.22;;;10.06;100.00
79645;BME280;69117;47.148;18.954;2024-03-23T06:31:31;99926.34;;;10.31;100.00
79645;BME280;69117;47.148;18.954;2024-03-23T06:34:32;99917.47;;;10.59;100.00
79645;BME280;69117;47.148;18.954;2024-03-23T06:37:32;99912.00;;;10.78;100.00
79645;BME280;69117;47.148;18.954;2024-03-23T06:40:36;99918.22;;;11.03;100.00
79645;BME280;69117;47.148;18.954;2024-03-23T06:43:36;99915.91;;;11.00;100.00
79645;BME280;69117;47.148;18.954;2024-03-23T06:46:37;99911.63;;;10.99;100.00
79645;BME280;69117;47.148;18.954;2024-03-23T06:49:38;99905.19;;;11.10;100.00
79645;BME280;69117;47.148;18.954;2024-03-23T06:52:38;99905.50;;;11.07;100.00
79645;BME280;69117;47.148;18.954;2024-03-23T06:55:39;99903.38;;;11.02;100.00
79645;BME280;69117;47.148;18.954;2024-03-23T06:58:40;99905.69;;;11.13;100.00
79645;BME280;69117;47.148;18.954;2024-03-23T07:01:41;99906.88;;;11.19;100.00
79645;BME280;69117;47.148;18.954;2024-03-23T07:04:42;99911.38;;;11.27;100.00
79645;BME280;69117;47.148;18.954;2024-03-23T07:07:43;99906.00;;;11.53;100.00
79645;BME280;69117;47.148;18.954;2024-03-23T07:10:44;99898.69;;;12.13;100.00
79645;BME280;69117;47.148;18.954;2024-03-23T07:13:44;99889.22;;;12.19;100.00
79645;BME280;69117;47.148;18.954;2024-03-23T07:16:45;99881.63;;;12.32;100.00
79645;BME280;69117;47.148;18.954;2024-03-23T07:19:46;99890.47;;;12.72;100.00
79645;BME280;69117;47.148;18.954;2024-03-23T07:22:46;99886.47;;;13.24;100.00
79645;BME280;69117;47.148;18.954;2024-03-23T07:26:01;99882.72;;;14.18;100.00
79645;BME280;69117;47.148;18.954;2024-03-23T07:29:03;99893.19;;;14.73;100.00
79645;BME280;69117;47.148;18.954;2024-03-23T07:32:04;99885.19;;;15.02;100.00
79645;BME280;69117;47.148;18.954;2024-03-23T07:35:05;99887.84;;;15.68;100.00
79645;BME280;69117;47.148;18.954;2024-03-23T07:38:06;99882.97;;;15.57;100.00
79645;BME280;69117;47.148;18.954;2024-03-23T07:41:10;99869.94;;;15.62;100.00
79645;BME280;69117;47.148;18.954;2024-03-23T07:44:11;99871.56;;;15.63;100.00
79645;BME280;69117;47.148;18.954;2024-03-23T07:47:12;99864.28;;;16.15;100.00
79645;BME280;69117;47.148;18.954;2024-03-23T07:50:13;99865.94;;;15.73;100.00
79645;BME280;69117;47.148;18.954;2024-03-23T07:53:13;99858.59;;;15.75;100.00
79645;BME280;69117;47.148;18.954;2024-03-23T07:56:15;99853.91;;;15.98;100.00
79645;BME280;69117;47.148;18.954;2024-03-23T07:59:16;99846.19;;;16.32;100.00
79645;BME280;69117;47.148;18.954;2024-03-23T08:02:18;99843.22;;;16.20;100.00
79645;BME280;69117;47.148;18.954;2024-03-23T08:05:19;99834.50;;;16.67;100.00
79645;BME280;69117;47.148;18.954;2024-03-23T08:08:20;99834.56;;;17.22;100.00
79645;BME280;69117;47.148;18.954;2024-03-23T08:11:20;99840.19;;;17.54;100.00
79645;BME280;69117;47.148;18.954;2024-03-23T08:14:21;99841.78;;;17.35;100.00
79645;BME280;69117;47.148;18.954;2024-03-23T08:17:22;99826.00;;;17.60;100.00
79645;BME280;69117;47.148;18.954;2024-03-23T08:20:23;99829.09;;;17.57;100.00
79645;BME280;69117;47.148;18.954;2024-03-23T08:23:24;99828.09;;;17.58;100.00
79645;BME280;69117;47.148;18.954;2024-03-23T08:26:25;99814.91;;;17.50;100.00
79645;BME280;69117;47.148;18.954;2024-03-23T08:29:26;99815.25;;;17.20;100.00
79645;BME280;69117;47.148;18.954;2024-03-23T08:32:26;99804.09;;;17.03;100.00
79645;BME280;69117;47.148;18.954;2024-03-23T08:35:27;99805.66;;;16.84;100.00
79645;BME280;69117;47.148;18.954;2024-03-23T08:38:28;99799.13;;;16.87;100.00
79645;BME280;69117;47.148;18.954;2024-03-23T08:41:29;99795.09;;;17.04;100.00
79645;BME280;69117;47.148;18.954;2024-03-23T08:44:29;99799.34;;;16.92;100.00
79645;BME280;69117;47.148;18.954;2024-03-23T08:47:32;99796.03;;;16.90;100.00
79645;BME280;69117;47.148;18.954;2024-03-23T08:50:34;99779.13;;;17.31;100.00
79645;BME280;69117;47.148;18.954;2024-03-23T08:53:35;99791.13;;;18.08;100.00
79645;BME280;69117;47.148;18.954;2024-03-23T08:56:35;99786.66;;;18.67;100.00
79645;BME280;69117;47.148;18.954;2024-03-23T08:59:37;99783.06;;;18.15;100.00
79645;BME280;69117;47.148;18.954;2024-03-23T09:02:38;99782.28;;;18.01;100.00
79645;BME280;69117;47.148;18.954;2024-03-23T09:05:39;99776.06;;;18.27;100.00
79645;BME280;69117;47.148;18.954;2024-03-23T09:08:40;99777.19;;;18.77;100.00
79645;BME280;69117;47.148;18.954;2024-03-23T09:11:42;99770.13;;;18.90;100.00
79645;BME280;69117;47.148;18.954;2024-03-23T09:14:42;99769.22;;;19.03;100.00
79645;BME280;69117;47.148;18.954;2024-03-23T09:17:43;99766.44;;;19.54;100.00
79645;BME280;69117;47.148;18.954;2024-03-23T09:20:44;99759.69;;;20.20;100.00
79645;BME280;69117;47.148;18.954;2024-03-23T09:23:45;99749.00;;;20.57;100.00
79645;BME280;69117;47.148;18.954;2024-03-23T09:26:45;99747.00;;;19.90;100.00
79645;BME280;69117;47.148;18.954;2024-03-23T09:29:46;99749.28;;;19.37;100.00
79645;BME280;69117;47.148;18.954;2024-03-23T09:32:53;99734.22;;;19.67;96.49
79645;BME280;69117;47.148;18.954;2024-03-23T09:35:53;99741.34;;;19.99;99.20
79645;BME280;69117;47.148;18.954;2024-03-23T09:38:55;99746.97;;;19.40;97.16
79645;BME280;69117;47.148;18.954;2024-03-23T09:41:56;99742.72;;;19.26;97.34
79645;BME280;69117;47.148;18.954;2024-03-23T09:44:57;99737.13;;;19.34;100.00
79645;BME280;69117;47.148;18.954;2024-03-23T09:47:59;99732.13;;;19.13;98.14
79645;BME280;69117;47.148;18.954;2024-03-23T09:50:59;99734.13;;;19.17;98.90
79645;BME280;69117;47.148;18.954;2024-03-23T09:54:00;99725.91;;;19.19;100.00
79645;BME280;69117;47.148;18.954;2024-03-23T09:57:01;99719.94;;;19.42;100.00
79645;BME280;69117;47.148;18.954;2024-03-23T10:00:03;99713.72;;;20.17;97.22
79645;BME280;69117;47.148;18.954;2024-03-23T10:03:04;99708.88;;;20.44;98.38
79645;BME280;69117;47.148;18.954;2024-03-23T10:06:06;99701.09;;;21.02;92.50
79645;BME280;69117;47.148;18.954;2024-03-23T10:09:16;99699.69;;;20.88;88.75
79645;BME280;69117;47.148;18.954;2024-03-23T10:12:19;99704.03;;;21.01;84.53
79645;BME280;69117;47.148;18.954;2024-03-23T10:15:24;99703.59;;;21.46;76.00
79645;BME280;69117;47.148;18.954;2024-03-23T10:18:26;99690.19;;;20.86;77.36
79645;BME280;69117;47.148;18.954;2024-03-23T10:21:28;99696.13;;;20.76;75.06
79645;BME280;69117;47.148;18.954;2024-03-23T10:24:29;99689.47;;;20.78;84.07
79645;BME280;69117;47.148;18.954;2024-03-23T10:27:30;99682.41;;;20.47;78.50
79645;BME280;69117;47.148;18.954;2024-03-23T10:30:30;99680.09;;;20.51;78.73
79645;BME280;69117;47.148;18.954;2024-03-23T10:33:31;99680.66;;;20.04;78.66
79645;BME280;69117;47.148;18.954;2024-03-23T10:36:34;99680.44;;;20.24;84.02
79645;BME280;69117;47.148;18.954;2024-03-23T10:39:39;99671.84;;;20.34;78.09
79645;BME280;69117;47.148;18.954;2024-03-23T10:42:40;99666.16;;;20.42;77.00
79645;BME280;69117;47.148;18.954;2024-03-23T10:45:41;99660.31;;;20.52;78.14
79645;BME280;69117;47.148;18.954;2024-03-23T10:48:42;99659.16;;;20.59;80.11
79645;BME280;69117;47.148;18.954;2024-03-23T10:51:44;99654.06;;;21.12;80.78
79645;BME280;69117;47.148;18.954;2024-03-23T10:54:47;99641.97;;;21.80;78.37
79645;BME280;69117;47.148;18.954;2024-03-23T10:57:51;99640.53;;;22.01;71.87
79645;BME280;69117;47.148;18.954;2024-03-23T11:00:53;99630.94;;;22.05;67.58
79645;BME280;69117;47.148;18.954;2024-03-23T11:03:54;99630.63;;;22.41;64.33
79645;BME280;69117;47.148;18.954;2024-03-23T11:06:55;99614.44;;;22.25;64.06
79645;BME280;69117;47.148;18.954;2024-03-23T11:09:56;99613.88;;;21.99;70.98
79645;BME280;69117;47.148;18.954;2024-03-23T11:12:57;99602.72;;;21.43;76.75
79645;BME280;69117;47.148;18.954;2024-03-23T11:16:12;99602.25;;;21.70;75.15
79645;BME280;69117;47.148;18.954;2024-03-23T11:19:33;99593.22;;;21.88;79.22
79645;BME280;69117;47.148;18.954;2024-03-23T11:25:37;99579.03;;;21.92;70.25
79645;BME280;69117;47.148;18.954;2024-03-23T11:28:38;99580.94;;;21.80;73.21
79645;BME280;69117;47.148;18.954;2024-03-23T11:31:45;99561.94;;;21.99;71.20
79645;BME280;69117;47.148;18.954;2024-03-23T11:34:46;99564.63;;;21.99;74.03
79645;BME280;69117;47.148;18.954;2024-03-23T11:41:10;99548.09;;;22.18;62.89
79645;BME280;69117;47.148;18.954;2024-03-23T11:44:15;99547.38;;;22.23;62.71
79645;BME280;69117;47.148;18.954;2024-03-23T11:47:16;99541.06;;;22.17;55.40
79645;BME280;69117;47.148;18.954;2024-03-23T11:50:20;99531.72;;;22.20;56.41
79645;BME280;69117;47.148;18.954;2024-03-23T11:53:22;99530.13;;;23.59;53.35
79645;BME280;69117;47.148;18.954;2024-03-23T11:56:23;99518.66;;;23.08;55.10
79645;BME280;69117;47.148;18.954;2024-03-23T11:59:44;99506.56;;;23.93;49.12
79645;BME280;69117;47.148;18.954;2024-03-23T12:02:45;99502.91;;;24.32;48.18
79645;BME280;69117;47.148;18.954;2024-03-23T12:05:49;99501.06;;;23.83;47.14
79645;BME280;69117;47.148;18.954;2024-03-23T12:08:53;99497.59;;;22.88;48.03
79645;BME280;69117;47.148;18.954;2024-03-23T12:15:08;99487.03;;;22.86;45.90
79645;BME280;69117;47.148;18.954;2024-03-23T12:18:09;99485.09;;;22.65;46.35
79645;BME280;69117;47.148;18.954;2024-03-23T12:21:10;99477.38;;;22.52;47.11
79645;BME280;69117;47.148;18.954;2024-03-23T12:24:11;99474.94;;;21.64;47.72
79645;BME280;69117;47.148;18.954;2024-03-23T12:27:12;99462.84;;;21.38;49.74
79645;BME280;69117;47.148;18.954;2024-03-23T12:30:13;99466.59;;;21.37;50.35
79645;BME280;69117;47.148;18.954;2024-03-23T12:33:13;99450.84;;;21.05;54.39
79645;BME280;69117;47.148;18.954;2024-03-23T12:36:14;99452.38;;;20.90;48.65
79645;BME280;69117;47.148;18.954;2024-03-23T12:39:15;99446.31;;;20.83;54.06
79645;BME280;69117;47.148;18.954;2024-03-23T12:42:15;99442.78;;;21.05;57.76
79645;BME280;69117;47.148;18.954;2024-03-23T12:45:16;99439.06;;;20.95;55.70
79645;BME280;69117;47.148;18.954;2024-03-23T12:48:17;99428.53;;;21.05;62.11
79645;BME280;69117;47.148;18.954;2024-03-23T12:51:18;99429.13;;;20.95;57.06
79645;BME280;69117;47.148;18.954;2024-03-23T12:54:19;99428.09;;;20.85;53.51
79645;BME280;69117;47.148;18.954;2024-03-23T12:57:19;99415.16;;;20.58;56.99
79645;BME280;69117;47.148;18.954;2024-03-23T13:00:20;99422.41;;;20.57;53.97
79645;BME280;69117;47.148;18.954;2024-03-23T13:03:21;99422.09;;;20.47;56.80
79645;BME280;69117;47.148;18.954;2024-03-23T13:06:21;99407.88;;;20.35;55.92
79645;BME280;69117;47.148;18.954;2024-03-23T13:09:22;99409.72;;;20.23;59.27
79645;BME280;69117;47.148;18.954;2024-03-23T13:12:23;99402.63;;;20.28;55.67
79645;BME280;69117;47.148;18.954;2024-03-23T13:15:24;99393.41;;;20.24;57.34
79645;BME280;69117;47.148;18.954;2024-03-23T13:18:24;99400.28;;;20.32;56.89
79645;BME280;69117;47.148;18.954;2024-03-23T13:21:25;99398.31;;;20.27;56.92
79645;BME280;69117;47.148;18.954;2024-03-23T13:24:27;99391.28;;;20.26;59.15
79645;BME280;69117;47.148;18.954;2024-03-23T13:27:27;99387.34;;;20.29;59.25
79645;BME280;69117;47.148;18.954;2024-03-23T13:30:28;99388.50;;;20.33;59.04
79645;BME280;69117;47.148;18.954;2024-03-23T13:33:30;99382.78;;;20.29;63.41
79645;BME280;69117;47.148;18.954;2024-03-23T13:36:32;99376.97;;;20.44;63.43
79645;BME280;69117;47.148;18.954;2024-03-23T13:39:33;99374.84;;;20.34;62.23
79645;BME280;69117;47.148;18.954;2024-03-23T13:42:34;99374.63;;;20.24;63.53
79645;BME280;69117;47.148;18.954;2024-03-23T13:45:34;99358.38;;;20.07;63.29
79645;BME280;69117;47.148;18.954;2024-03-23T13:48:37;99354.75;;;20.02;61.48
79645;BME280;69117;47.148;18.954;2024-03-23T13:51:37;99354.63;;;19.97;62.19
79645;BME280;69117;47.148;18.954;2024-03-23T13:54:38;99357.41;;;19.90;60.17
79645;BME280;69117;47.148;18.954;2024-03-23T13:57:39;99338.16;;;19.81;64.38
79645;BME280;69117;47.148;18.954;2024-03-23T14:00:39;99355.19;;;19.87;66.88
79645;BME280;69117;47.148;18.954;2024-03-23T14:03:41;99346.78;;;19.72;61.58
79645;BME280;69117;47.148;18.954;2024-03-23T14:06:41;99349.59;;;19.77;64.36
79645;BME280;69117;47.148;18.954;2024-03-23T14:09:42;99335.09;;;19.66;66.92
79645;BME280;69117;47.148;18.954;2024-03-23T14:12:43;99334.81;;;19.56;66.93
79645;BME280;69117;47.148;18.954;2024-03-23T14:15:44;99333.72;;;19.45;69.20
79645;BME280;69117;47.148;18.954;2024-03-23T14:18:48;99324.97;;;19.38;68.20
79645;BME280;69117;47.148;18.954;2024-03-23T14:21:48;99325.00;;;19.19;71.59
79645;BME280;69117;47.148;18.954;2024-03-23T14:24:50;99323.75;;;19.22;72.97
79645;BME280;69117;47.148;18.954;2024-03-23T14:27:50;99316.81;;;19.14;74.94
79645;BME280;69117;47.148;18.954;2024-03-23T14:30:52;99315.00;;;19.27;74.66
79645;BME280;69117;47.148;18.954;2024-03-23T14:33:55;99318.44;;;19.34;73.30
79645;BME280;69117;47.148;18.954;2024-03-23T14:36:56;99309.22;;;19.30;77.62
79645;BME280;69117;47.148;18.954;2024-03-23T14:39:57;99309.22;;;19.30;75.63
79645;BME280;69117;47.148;18.954;2024-03-23T14:42:57;99302.88;;;19.24;76.47
79645;BME280;69117;47.148;18.954;2024-03-23T14:46:15;99296.16;;;19.21;76.51
79645;BME280;69117;47.148;18.954;2024-03-23T14:49:16;99299.59;;;19.10;80.57
79645;BME280;69117;47.148;18.954;2024-03-23T14:52:17;99300.31;;;19.17;76.54
79645;BME280;69117;47.148;18.954;2024-03-23T14:55:19;99300.66;;;19.09;74.13
79645;BME280;69117;47.148;18.954;2024-03-23T14:58:20;99309.09;;;19.06;76.50
79645;BME280;69117;47.148;18.954;2024-03-23T15:01:20;99302.81;;;19.01;75.45
79645;BME280;69117;47.148;18.954;2024-03-23T15:04:21;99304.38;;;18.90;79.98
79645;BME280;69117;47.148;18.954;2024-03-23T15:07:22;99310.19;;;18.87;77.69
79645;BME280;69117;47.148;18.954;2024-03-23T15:10:22;99307.06;;;18.90;73.98
79645;BME280;69117;47.148;18.954;2024-03-23T15:13:23;99311.88;;;18.81;74.26
79645;BME280;69117;47.148;18.954;2024-03-23T15:16:24;99308.66;;;18.72;74.92
79645;BME280;69117;47.148;18.954;2024-03-23T15:19:25;99299.19;;;18.76;69.64
79645;BME280;69117;47.148;18.954;2024-03-23T15:22:26;99305.00;;;18.73;70.99
79645;BME280;69117;47.148;18.954;2024-03-23T15:25:27;99297.06;;;18.60;71.61
79645;BME280;69117;47.148;18.954;2024-03-23T15:28:28;99304.97;;;18.55;67.74
79645;BME280;69117;47.148;18.954;2024-03-23T15:31:47;99303.63;;;18.46;70.10
79645;BME280;69117;47.148;18.954;2024-03-23T15:34:51;99305.44;;;18.45;68.67
79645;BME280;69117;47.148;18.954;2024-03-23T15:37:52;99307.22;;;18.33;70.52
79645;BME280;69117;47.148;18.954;2024-03-23T15:40:53;99305.81;;;18.30;68.94
79645;BME280;69117;47.148;18.954;2024-03-23T15:43:53;99304.84;;;18.25;68.79
79645;BME280;69117;47.148;18.954;2024-03-23T15:46:54;99306.25;;;18.27;68.49
79645;BME280;69117;47.148;18.954;2024-03-23T15:49:54;99313.53;;;18.20;67.69
79645;BME280;69117;47.148;18.954;2024-03-23T15:52:56;99307.16;;;17.96;67.70
79645;BME280;69117;47.148;18.954;2024-03-23T15:55:57;99306.78;;;17.93;71.29
79645;BME280;69117;47.148;18.954;2024-03-23T15:58:58;99300.00;;;17.90;71.23
79645;BME280;69117;47.148;18.954;2024-03-23T16:02:05;99306.88;;;17.79;71.95
79645;BME280;69117;47.148;18.954;2024-03-23T16:05:07;99301.81;;;17.65;73.74
79645;BME280;69117;47.148;18.954;2024-03-23T16:08:11;99304.94;;;17.55;73.98
79645;BME280;69117;47.148;18.954;2024-03-23T16:11:12;99313.28;;;17.72;69.87
79645;BME280;69117;47.148;18.954;2024-03-23T16:14:12;99299.41;;;17.56;72.62
79645;BME280;69117;47.148;18.954;2024-03-23T16:17:13;99303.75;;;17.51;72.97
79645;BME280;69117;47.148;18.954;2024-03-23T16:20:14;99300.59;;;17.60;72.53
79645;BME280;69117;47.148;18.954;2024-03-23T16:23:14;99300.31;;;17.44;73.85
79645;BME280;69117;47.148;18.954;2024-03-23T16:26:15;99290.88;;;17.41;72.99
79645;BME280;69117;47.148;18.954;2024-03-23T16:29:17;99292.00;;;17.27;75.93
79645;BME280;69117;47.148;18.954;2024-03-23T16:32:18;99293.66;;;17.28;75.68
79645;BME280;69117;47.148;18.954;2024-03-23T16:35:19;99291.84;;;17.15;77.77
79645;BME280;69117;47.148;18.954;2024-03-23T16:38:19;99283.69;;;17.03;78.69
79645;BME280;69117;47.148;18.954;2024-03-23T16:41:20;99276.16;;;16.93;78.87
79645;BME280;69117;47.148;18.954;2024-03-23T16:44:21;99285.03;;;16.81;80.05
79645;BME280;69117;47.148;18.954;2024-03-23T16:47:21;99275.78;;;16.70;82.24